<?xml version="1.0" encoding="UTF-8" standalone="no" ?>
<gpx xmlns="http://www.topografix.com/GPX/1/1" xmlns:xsi="http://www.w3.org/2001/XMLSchema-instance" xsi:schemaLocation="http://www.topografix.com/GPX/1/1 http://www.topografix.com/GPX/1/1/gpx.xsd" version="1.1" creator="VisuGPX - https://www.visugpx.com">
  <metadata>
    <name>Taurignan Gajan Saint lizier 2h42 2,7km/h</name>
  </metadata>
  <trk>
    <name><![CDATA[Taurignan Gajan Saint lizier 2h42 2,7km/h]]></name>
    <trkseg>
      <trkpt lat="43.02669" lon="1.11359">
        <ele>442</ele>
        <time>2022-01-27T14:16:19+01:00</time>
      </trkpt>
      <trkpt lat="43.02647" lon="1.11372">
        <ele>412</ele>
        <time>2022-01-27T14:17:07+01:00</time>
      </trkpt>
      <trkpt lat="43.02624" lon="1.11377">
        <ele>407</ele>
        <time>2022-01-27T14:17:38+01:00</time>
      </trkpt>
      <trkpt lat="43.02603" lon="1.11389">
        <ele>406</ele>
        <time>2022-01-27T14:18:05+01:00</time>
      </trkpt>
      <trkpt lat="43.02582" lon="1.11403">
        <ele>406</ele>
        <time>2022-01-27T14:18:25+01:00</time>
      </trkpt>
      <trkpt lat="43.02562" lon="1.11419">
        <ele>407</ele>
        <time>2022-01-27T14:18:45+01:00</time>
      </trkpt>
      <trkpt lat="43.02541" lon="1.11432">
        <ele>413</ele>
        <time>2022-01-27T14:19:07+01:00</time>
      </trkpt>
      <trkpt lat="43.02523" lon="1.1145">
        <ele>413</ele>
        <time>2022-01-27T14:19:30+01:00</time>
      </trkpt>
      <trkpt lat="43.02504" lon="1.11469">
        <ele>412</ele>
        <time>2022-01-27T14:19:56+01:00</time>
      </trkpt>
      <trkpt lat="43.02484" lon="1.11484">
        <ele>411</ele>
        <time>2022-01-27T14:20:23+01:00</time>
      </trkpt>
      <trkpt lat="43.02469" lon="1.11508">
        <ele>417</ele>
        <time>2022-01-27T14:20:42+01:00</time>
      </trkpt>
      <trkpt lat="43.02449" lon="1.11524">
        <ele>422</ele>
        <time>2022-01-27T14:20:56+01:00</time>
      </trkpt>
      <trkpt lat="43.02427" lon="1.11537">
        <ele>427</ele>
        <time>2022-01-27T14:21:18+01:00</time>
      </trkpt>
      <trkpt lat="43.02405" lon="1.11548">
        <ele>425</ele>
        <time>2022-01-27T14:21:40+01:00</time>
      </trkpt>
      <trkpt lat="43.02383" lon="1.11559">
        <ele>415</ele>
        <time>2022-01-27T14:22:04+01:00</time>
      </trkpt>
      <trkpt lat="43.02379" lon="1.1159">
        <ele>413</ele>
        <time>2022-01-27T14:22:26+01:00</time>
      </trkpt>
      <trkpt lat="43.02397" lon="1.1161">
        <ele>411</ele>
        <time>2022-01-27T14:22:49+01:00</time>
      </trkpt>
      <trkpt lat="43.0242" lon="1.11621">
        <ele>415</ele>
        <time>2022-01-27T14:23:10+01:00</time>
      </trkpt>
      <trkpt lat="43.02435" lon="1.11644">
        <ele>419</ele>
        <time>2022-01-27T14:23:37+01:00</time>
      </trkpt>
      <trkpt lat="43.02443" lon="1.11674">
        <ele>418</ele>
        <time>2022-01-27T14:23:57+01:00</time>
      </trkpt>
      <trkpt lat="43.02451" lon="1.11702">
        <ele>417</ele>
        <time>2022-01-27T14:24:20+01:00</time>
      </trkpt>
      <trkpt lat="43.02473" lon="1.11716">
        <ele>412</ele>
        <time>2022-01-27T14:24:45+01:00</time>
      </trkpt>
      <trkpt lat="43.02467" lon="1.11747">
        <ele>412</ele>
        <time>2022-01-27T14:26:17+01:00</time>
      </trkpt>
      <trkpt lat="43.02446" lon="1.11758">
        <ele>414</ele>
        <time>2022-01-27T14:26:40+01:00</time>
      </trkpt>
      <trkpt lat="43.02426" lon="1.11775">
        <ele>417</ele>
        <time>2022-01-27T14:26:57+01:00</time>
      </trkpt>
      <trkpt lat="43.02411" lon="1.11799">
        <ele>421</ele>
        <time>2022-01-27T14:27:18+01:00</time>
      </trkpt>
      <trkpt lat="43.02398" lon="1.11824">
        <ele>421</ele>
        <time>2022-01-27T14:27:38+01:00</time>
      </trkpt>
      <trkpt lat="43.02383" lon="1.11849">
        <ele>418</ele>
        <time>2022-01-27T14:27:59+01:00</time>
      </trkpt>
      <trkpt lat="43.02369" lon="1.11873">
        <ele>418</ele>
        <time>2022-01-27T14:28:21+01:00</time>
      </trkpt>
      <trkpt lat="43.0236" lon="1.11902">
        <ele>420</ele>
        <time>2022-01-27T14:28:41+01:00</time>
      </trkpt>
      <trkpt lat="43.02353" lon="1.11931">
        <ele>422</ele>
        <time>2022-01-27T14:29:01+01:00</time>
      </trkpt>
      <trkpt lat="43.02348" lon="1.11962">
        <ele>427</ele>
        <time>2022-01-27T14:29:22+01:00</time>
      </trkpt>
      <trkpt lat="43.02338" lon="1.11991">
        <ele>429</ele>
        <time>2022-01-27T14:29:41+01:00</time>
      </trkpt>
      <trkpt lat="43.02335" lon="1.12022">
        <ele>418</ele>
        <time>2022-01-27T14:30:14+01:00</time>
      </trkpt>
      <trkpt lat="43.02325" lon="1.1205">
        <ele>414</ele>
        <time>2022-01-27T14:30:36+01:00</time>
      </trkpt>
      <trkpt lat="43.02314" lon="1.12077">
        <ele>411</ele>
        <time>2022-01-27T14:30:56+01:00</time>
      </trkpt>
      <trkpt lat="43.02304" lon="1.12104">
        <ele>413</ele>
        <time>2022-01-27T14:31:16+01:00</time>
      </trkpt>
      <trkpt lat="43.02292" lon="1.12131">
        <ele>415</ele>
        <time>2022-01-27T14:31:41+01:00</time>
      </trkpt>
      <trkpt lat="43.0228" lon="1.12158">
        <ele>414</ele>
        <time>2022-01-27T14:32:06+01:00</time>
      </trkpt>
      <trkpt lat="43.02266" lon="1.12185">
        <ele>416</ele>
        <time>2022-01-27T14:32:28+01:00</time>
      </trkpt>
      <trkpt lat="43.02253" lon="1.12211">
        <ele>417</ele>
        <time>2022-01-27T14:32:48+01:00</time>
      </trkpt>
      <trkpt lat="43.02243" lon="1.12239">
        <ele>421</ele>
        <time>2022-01-27T14:33:09+01:00</time>
      </trkpt>
      <trkpt lat="43.02232" lon="1.12267">
        <ele>420</ele>
        <time>2022-01-27T14:33:29+01:00</time>
      </trkpt>
      <trkpt lat="43.02222" lon="1.12296">
        <ele>423</ele>
        <time>2022-01-27T14:33:53+01:00</time>
      </trkpt>
      <trkpt lat="43.02203" lon="1.12312">
        <ele>429</ele>
        <time>2022-01-27T14:34:13+01:00</time>
      </trkpt>
      <trkpt lat="43.02203" lon="1.12344">
        <ele>427</ele>
        <time>2022-01-27T14:34:34+01:00</time>
      </trkpt>
      <trkpt lat="43.02204" lon="1.12375">
        <ele>422</ele>
        <time>2022-01-27T14:34:53+01:00</time>
      </trkpt>
      <trkpt lat="43.02211" lon="1.12406">
        <ele>421</ele>
        <time>2022-01-27T14:35:19+01:00</time>
      </trkpt>
      <trkpt lat="43.0223" lon="1.12424">
        <ele>422</ele>
        <time>2022-01-27T14:35:41+01:00</time>
      </trkpt>
      <trkpt lat="43.0225" lon="1.12438">
        <ele>421</ele>
        <time>2022-01-27T14:36:01+01:00</time>
      </trkpt>
      <trkpt lat="43.02269" lon="1.12454">
        <ele>421</ele>
        <time>2022-01-27T14:36:21+01:00</time>
      </trkpt>
      <trkpt lat="43.02291" lon="1.12466">
        <ele>418</ele>
        <time>2022-01-27T14:36:47+01:00</time>
      </trkpt>
      <trkpt lat="43.02313" lon="1.12477">
        <ele>417</ele>
        <time>2022-01-27T14:37:08+01:00</time>
      </trkpt>
      <trkpt lat="43.02334" lon="1.12489">
        <ele>415</ele>
        <time>2022-01-27T14:37:28+01:00</time>
      </trkpt>
      <trkpt lat="43.02355" lon="1.12498">
        <ele>419</ele>
        <time>2022-01-27T14:37:50+01:00</time>
      </trkpt>
      <trkpt lat="43.02375" lon="1.12515">
        <ele>419</ele>
        <time>2022-01-27T14:38:13+01:00</time>
      </trkpt>
      <trkpt lat="43.02389" lon="1.1254">
        <ele>418</ele>
        <time>2022-01-27T14:38:36+01:00</time>
      </trkpt>
      <trkpt lat="43.02402" lon="1.12566">
        <ele>422</ele>
        <time>2022-01-27T14:38:57+01:00</time>
      </trkpt>
      <trkpt lat="43.02415" lon="1.12591">
        <ele>423</ele>
        <time>2022-01-27T14:39:18+01:00</time>
      </trkpt>
      <trkpt lat="43.02426" lon="1.12618">
        <ele>420</ele>
        <time>2022-01-27T14:39:45+01:00</time>
      </trkpt>
      <trkpt lat="43.02403" lon="1.12624">
        <ele>422</ele>
        <time>2022-01-27T14:40:04+01:00</time>
      </trkpt>
      <trkpt lat="43.02381" lon="1.12628">
        <ele>421</ele>
        <time>2022-01-27T14:40:26+01:00</time>
      </trkpt>
      <trkpt lat="43.02358" lon="1.12629">
        <ele>420</ele>
        <time>2022-01-27T14:40:48+01:00</time>
      </trkpt>
      <trkpt lat="43.02335" lon="1.1263">
        <ele>420</ele>
        <time>2022-01-27T14:41:08+01:00</time>
      </trkpt>
      <trkpt lat="43.02312" lon="1.12632">
        <ele>420</ele>
        <time>2022-01-27T14:41:30+01:00</time>
      </trkpt>
      <trkpt lat="43.02289" lon="1.12635">
        <ele>420</ele>
        <time>2022-01-27T14:41:55+01:00</time>
      </trkpt>
      <trkpt lat="43.02267" lon="1.12646">
        <ele>420</ele>
        <time>2022-01-27T14:42:16+01:00</time>
      </trkpt>
      <trkpt lat="43.02247" lon="1.12661">
        <ele>420</ele>
        <time>2022-01-27T14:42:36+01:00</time>
      </trkpt>
      <trkpt lat="43.02225" lon="1.12671">
        <ele>419</ele>
        <time>2022-01-27T14:43:00+01:00</time>
      </trkpt>
      <trkpt lat="43.02211" lon="1.12696">
        <ele>419</ele>
        <time>2022-01-27T14:43:22+01:00</time>
      </trkpt>
      <trkpt lat="43.02201" lon="1.12724">
        <ele>420</ele>
        <time>2022-01-27T14:43:46+01:00</time>
      </trkpt>
      <trkpt lat="43.02196" lon="1.12755">
        <ele>420</ele>
        <time>2022-01-27T14:44:08+01:00</time>
      </trkpt>
      <trkpt lat="43.02188" lon="1.12784">
        <ele>422</ele>
        <time>2022-01-27T14:44:32+01:00</time>
      </trkpt>
      <trkpt lat="43.02178" lon="1.12813">
        <ele>423</ele>
        <time>2022-01-27T14:44:56+01:00</time>
      </trkpt>
      <trkpt lat="43.02164" lon="1.12837">
        <ele>422</ele>
        <time>2022-01-27T14:45:19+01:00</time>
      </trkpt>
      <trkpt lat="43.02152" lon="1.12863">
        <ele>420</ele>
        <time>2022-01-27T14:45:45+01:00</time>
      </trkpt>
      <trkpt lat="43.02134" lon="1.12882">
        <ele>420</ele>
        <time>2022-01-27T14:46:12+01:00</time>
      </trkpt>
      <trkpt lat="43.02118" lon="1.12904">
        <ele>420</ele>
        <time>2022-01-27T14:46:34+01:00</time>
      </trkpt>
      <trkpt lat="43.02099" lon="1.12922">
        <ele>422</ele>
        <time>2022-01-27T14:46:58+01:00</time>
      </trkpt>
      <trkpt lat="43.02081" lon="1.12942">
        <ele>421</ele>
        <time>2022-01-27T14:47:21+01:00</time>
      </trkpt>
      <trkpt lat="43.02067" lon="1.12967">
        <ele>419</ele>
        <time>2022-01-27T14:47:44+01:00</time>
      </trkpt>
      <trkpt lat="43.02049" lon="1.12989">
        <ele>421</ele>
        <time>2022-01-27T14:48:07+01:00</time>
      </trkpt>
      <trkpt lat="43.02034" lon="1.13011">
        <ele>424</ele>
        <time>2022-01-27T14:48:29+01:00</time>
      </trkpt>
      <trkpt lat="43.02018" lon="1.13033">
        <ele>424</ele>
        <time>2022-01-27T14:48:50+01:00</time>
      </trkpt>
      <trkpt lat="43.02" lon="1.13052">
        <ele>421</ele>
        <time>2022-01-27T14:49:33+01:00</time>
      </trkpt>
      <trkpt lat="43.01982" lon="1.1307">
        <ele>423</ele>
        <time>2022-01-27T14:51:20+01:00</time>
      </trkpt>
      <trkpt lat="43.01965" lon="1.13092">
        <ele>425</ele>
        <time>2022-01-27T14:51:43+01:00</time>
      </trkpt>
      <trkpt lat="43.01948" lon="1.13112">
        <ele>425</ele>
        <time>2022-01-27T14:52:05+01:00</time>
      </trkpt>
      <trkpt lat="43.01931" lon="1.13133">
        <ele>428</ele>
        <time>2022-01-27T14:52:28+01:00</time>
      </trkpt>
      <trkpt lat="43.01914" lon="1.13155">
        <ele>427</ele>
        <time>2022-01-27T14:52:50+01:00</time>
      </trkpt>
      <trkpt lat="43.01894" lon="1.1317">
        <ele>429</ele>
        <time>2022-01-27T14:53:10+01:00</time>
      </trkpt>
      <trkpt lat="43.01875" lon="1.1319">
        <ele>424</ele>
        <time>2022-01-27T14:53:36+01:00</time>
      </trkpt>
      <trkpt lat="43.01855" lon="1.13205">
        <ele>427</ele>
        <time>2022-01-27T14:53:58+01:00</time>
      </trkpt>
      <trkpt lat="43.01834" lon="1.1322">
        <ele>429</ele>
        <time>2022-01-27T14:54:19+01:00</time>
      </trkpt>
      <trkpt lat="43.01817" lon="1.13241">
        <ele>433</ele>
        <time>2022-01-27T14:54:46+01:00</time>
      </trkpt>
      <trkpt lat="43.01806" lon="1.13268">
        <ele>433</ele>
        <time>2022-01-27T14:55:12+01:00</time>
      </trkpt>
      <trkpt lat="43.01801" lon="1.13299">
        <ele>436</ele>
        <time>2022-01-27T14:55:36+01:00</time>
      </trkpt>
      <trkpt lat="43.01788" lon="1.13326">
        <ele>439</ele>
        <time>2022-01-27T14:56:12+01:00</time>
      </trkpt>
      <trkpt lat="43.01774" lon="1.1335">
        <ele>443</ele>
        <time>2022-01-27T14:56:34+01:00</time>
      </trkpt>
      <trkpt lat="43.01755" lon="1.13366">
        <ele>443</ele>
        <time>2022-01-27T14:56:59+01:00</time>
      </trkpt>
      <trkpt lat="43.01733" lon="1.13375">
        <ele>442</ele>
        <time>2022-01-27T14:57:21+01:00</time>
      </trkpt>
      <trkpt lat="43.01713" lon="1.13391">
        <ele>444</ele>
        <time>2022-01-27T14:57:46+01:00</time>
      </trkpt>
      <trkpt lat="43.01691" lon="1.134">
        <ele>449</ele>
        <time>2022-01-27T14:58:12+01:00</time>
      </trkpt>
      <trkpt lat="43.0167" lon="1.13412">
        <ele>449</ele>
        <time>2022-01-27T14:58:43+01:00</time>
      </trkpt>
      <trkpt lat="43.01648" lon="1.13419">
        <ele>446</ele>
        <time>2022-01-27T14:58:59+01:00</time>
      </trkpt>
      <trkpt lat="43.01625" lon="1.13419">
        <ele>441</ele>
        <time>2022-01-27T14:59:22+01:00</time>
      </trkpt>
      <trkpt lat="43.01602" lon="1.13415">
        <ele>438</ele>
        <time>2022-01-27T14:59:50+01:00</time>
      </trkpt>
      <trkpt lat="43.0158" lon="1.13408">
        <ele>437</ele>
        <time>2022-01-27T15:00:27+01:00</time>
      </trkpt>
      <trkpt lat="43.01558" lon="1.13399">
        <ele>439</ele>
        <time>2022-01-27T15:00:48+01:00</time>
      </trkpt>
      <trkpt lat="43.01535" lon="1.13391">
        <ele>436</ele>
        <time>2022-01-27T15:00:59+01:00</time>
      </trkpt>
      <trkpt lat="43.01512" lon="1.13388">
        <ele>427</ele>
        <time>2022-01-27T15:01:21+01:00</time>
      </trkpt>
      <trkpt lat="43.0149" lon="1.13383">
        <ele>431</ele>
        <time>2022-01-27T15:01:45+01:00</time>
      </trkpt>
      <trkpt lat="43.01467" lon="1.13376">
        <ele>427</ele>
        <time>2022-01-27T15:02:13+01:00</time>
      </trkpt>
      <trkpt lat="43.01444" lon="1.13373">
        <ele>431</ele>
        <time>2022-01-27T15:02:41+01:00</time>
      </trkpt>
      <trkpt lat="43.01423" lon="1.13385">
        <ele>433</ele>
        <time>2022-01-27T15:03:08+01:00</time>
      </trkpt>
      <trkpt lat="43.01401" lon="1.13394">
        <ele>441</ele>
        <time>2022-01-27T15:03:28+01:00</time>
      </trkpt>
      <trkpt lat="43.01378" lon="1.13396">
        <ele>441</ele>
        <time>2022-01-27T15:03:54+01:00</time>
      </trkpt>
      <trkpt lat="43.01355" lon="1.134">
        <ele>438</ele>
        <time>2022-01-27T15:04:29+01:00</time>
      </trkpt>
      <trkpt lat="43.01337" lon="1.13381">
        <ele>438</ele>
        <time>2022-01-27T15:05:07+01:00</time>
      </trkpt>
      <trkpt lat="43.01314" lon="1.13376">
        <ele>433</ele>
        <time>2022-01-27T15:05:46+01:00</time>
      </trkpt>
      <trkpt lat="43.01291" lon="1.13376">
        <ele>435</ele>
        <time>2022-01-27T15:06:13+01:00</time>
      </trkpt>
      <trkpt lat="43.01268" lon="1.13377">
        <ele>436</ele>
        <time>2022-01-27T15:07:07+01:00</time>
      </trkpt>
      <trkpt lat="43.01244" lon="1.13377">
        <ele>436</ele>
        <time>2022-01-27T15:07:35+01:00</time>
      </trkpt>
      <trkpt lat="43.01221" lon="1.13383">
        <ele>435</ele>
        <time>2022-01-27T15:07:56+01:00</time>
      </trkpt>
      <trkpt lat="43.01199" lon="1.13391">
        <ele>437</ele>
        <time>2022-01-27T15:08:38+01:00</time>
      </trkpt>
      <trkpt lat="43.0118" lon="1.13406">
        <ele>433</ele>
        <time>2022-01-27T15:09:02+01:00</time>
      </trkpt>
      <trkpt lat="43.01159" lon="1.13418">
        <ele>429</ele>
        <time>2022-01-27T15:09:26+01:00</time>
      </trkpt>
      <trkpt lat="43.01141" lon="1.13437">
        <ele>430</ele>
        <time>2022-01-27T15:09:56+01:00</time>
      </trkpt>
      <trkpt lat="43.01123" lon="1.13458">
        <ele>430</ele>
        <time>2022-01-27T15:10:19+01:00</time>
      </trkpt>
      <trkpt lat="43.01104" lon="1.13476">
        <ele>431</ele>
        <time>2022-01-27T15:10:44+01:00</time>
      </trkpt>
      <trkpt lat="43.01084" lon="1.13492">
        <ele>433</ele>
        <time>2022-01-27T15:11:10+01:00</time>
      </trkpt>
      <trkpt lat="43.01065" lon="1.1351">
        <ele>434</ele>
        <time>2022-01-27T15:11:33+01:00</time>
      </trkpt>
      <trkpt lat="43.01047" lon="1.13529">
        <ele>429</ele>
        <time>2022-01-27T15:12:40+01:00</time>
      </trkpt>
      <trkpt lat="43.01024" lon="1.1353">
        <ele>433</ele>
        <time>2022-01-27T15:13:00+01:00</time>
      </trkpt>
      <trkpt lat="43.01003" lon="1.13543">
        <ele>432</ele>
        <time>2022-01-27T15:13:24+01:00</time>
      </trkpt>
      <trkpt lat="43.00982" lon="1.13552">
        <ele>432</ele>
        <time>2022-01-27T15:14:03+01:00</time>
      </trkpt>
      <trkpt lat="43.00959" lon="1.1356">
        <ele>431</ele>
        <time>2022-01-27T15:14:27+01:00</time>
      </trkpt>
      <trkpt lat="43.00939" lon="1.13576">
        <ele>433</ele>
        <time>2022-01-27T15:14:50+01:00</time>
      </trkpt>
      <trkpt lat="43.00924" lon="1.136">
        <ele>437</ele>
        <time>2022-01-27T15:15:13+01:00</time>
      </trkpt>
      <trkpt lat="43.00905" lon="1.13616">
        <ele>434</ele>
        <time>2022-01-27T15:15:51+01:00</time>
      </trkpt>
      <trkpt lat="43.00897" lon="1.13645">
        <ele>435</ele>
        <time>2022-01-27T15:16:15+01:00</time>
      </trkpt>
      <trkpt lat="43.00884" lon="1.1367">
        <ele>441</ele>
        <time>2022-01-27T15:16:38+01:00</time>
      </trkpt>
      <trkpt lat="43.00873" lon="1.13698">
        <ele>443</ele>
        <time>2022-01-27T15:17:10+01:00</time>
      </trkpt>
      <trkpt lat="43.00863" lon="1.13725">
        <ele>443</ele>
        <time>2022-01-27T15:17:35+01:00</time>
      </trkpt>
      <trkpt lat="43.0085" lon="1.1375">
        <ele>445</ele>
        <time>2022-01-27T15:18:03+01:00</time>
      </trkpt>
      <trkpt lat="43.00831" lon="1.13769">
        <ele>452</ele>
        <time>2022-01-27T15:18:48+01:00</time>
      </trkpt>
      <trkpt lat="43.00825" lon="1.13799">
        <ele>453</ele>
        <time>2022-01-27T15:19:20+01:00</time>
      </trkpt>
      <trkpt lat="43.00819" lon="1.13829">
        <ele>453</ele>
        <time>2022-01-27T15:19:47+01:00</time>
      </trkpt>
      <trkpt lat="43.00802" lon="1.1385">
        <ele>457</ele>
        <time>2022-01-27T15:21:40+01:00</time>
      </trkpt>
      <trkpt lat="43.00781" lon="1.13864">
        <ele>462</ele>
        <time>2022-01-27T15:22:25+01:00</time>
      </trkpt>
      <trkpt lat="43.00759" lon="1.13849">
        <ele>461</ele>
        <time>2022-01-27T15:23:00+01:00</time>
      </trkpt>
      <trkpt lat="43.00737" lon="1.13837">
        <ele>462</ele>
        <time>2022-01-27T15:23:15+01:00</time>
      </trkpt>
      <trkpt lat="43.00715" lon="1.13833">
        <ele>461</ele>
        <time>2022-01-27T15:23:51+01:00</time>
      </trkpt>
      <trkpt lat="43.00691" lon="1.13827">
        <ele>463</ele>
        <time>2022-01-27T15:24:33+01:00</time>
      </trkpt>
      <trkpt lat="43.00677" lon="1.13851">
        <ele>463</ele>
        <time>2022-01-27T15:25:10+01:00</time>
      </trkpt>
      <trkpt lat="43.00668" lon="1.1388">
        <ele>467</ele>
        <time>2022-01-27T15:26:31+01:00</time>
      </trkpt>
      <trkpt lat="43.00649" lon="1.13897">
        <ele>468</ele>
        <time>2022-01-27T15:27:30+01:00</time>
      </trkpt>
      <trkpt lat="43.0064" lon="1.13927">
        <ele>472</ele>
        <time>2022-01-27T15:28:01+01:00</time>
      </trkpt>
      <trkpt lat="43.00629" lon="1.13954">
        <ele>475</ele>
        <time>2022-01-27T15:28:32+01:00</time>
      </trkpt>
      <trkpt lat="43.00613" lon="1.13976">
        <ele>479</ele>
        <time>2022-01-27T15:29:06+01:00</time>
      </trkpt>
      <trkpt lat="43.00607" lon="1.14006">
        <ele>477</ele>
        <time>2022-01-27T15:30:29+01:00</time>
      </trkpt>
      <trkpt lat="43.00589" lon="1.14026">
        <ele>477</ele>
        <time>2022-01-27T15:30:49+01:00</time>
      </trkpt>
      <trkpt lat="43.00571" lon="1.14045">
        <ele>477</ele>
        <time>2022-01-27T15:31:11+01:00</time>
      </trkpt>
      <trkpt lat="43.00559" lon="1.14071">
        <ele>481</ele>
        <time>2022-01-27T15:31:37+01:00</time>
      </trkpt>
      <trkpt lat="43.00549" lon="1.14099">
        <ele>479</ele>
        <time>2022-01-27T15:32:02+01:00</time>
      </trkpt>
      <trkpt lat="43.00534" lon="1.14122">
        <ele>476</ele>
        <time>2022-01-27T15:32:24+01:00</time>
      </trkpt>
      <trkpt lat="43.00517" lon="1.14142">
        <ele>479</ele>
        <time>2022-01-27T15:32:45+01:00</time>
      </trkpt>
      <trkpt lat="43.00497" lon="1.14158">
        <ele>482</ele>
        <time>2022-01-27T15:33:15+01:00</time>
      </trkpt>
      <trkpt lat="43.00474" lon="1.14166">
        <ele>484</ele>
        <time>2022-01-27T15:33:30+01:00</time>
      </trkpt>
      <trkpt lat="43.00451" lon="1.14167">
        <ele>476</ele>
        <time>2022-01-27T15:33:51+01:00</time>
      </trkpt>
      <trkpt lat="43.00428" lon="1.14171">
        <ele>477</ele>
        <time>2022-01-27T15:34:11+01:00</time>
      </trkpt>
      <trkpt lat="43.00407" lon="1.14157">
        <ele>478</ele>
        <time>2022-01-27T15:34:33+01:00</time>
      </trkpt>
      <trkpt lat="43.00392" lon="1.14133">
        <ele>480</ele>
        <time>2022-01-27T15:34:54+01:00</time>
      </trkpt>
      <trkpt lat="43.00375" lon="1.14111">
        <ele>478</ele>
        <time>2022-01-27T15:35:17+01:00</time>
      </trkpt>
      <trkpt lat="43.00359" lon="1.14088">
        <ele>478</ele>
        <time>2022-01-27T15:35:39+01:00</time>
      </trkpt>
      <trkpt lat="43.00341" lon="1.14068">
        <ele>477</ele>
        <time>2022-01-27T15:36:06+01:00</time>
      </trkpt>
      <trkpt lat="43.00323" lon="1.14048">
        <ele>474</ele>
        <time>2022-01-27T15:36:30+01:00</time>
      </trkpt>
      <trkpt lat="43.00307" lon="1.14026">
        <ele>474</ele>
        <time>2022-01-27T15:36:55+01:00</time>
      </trkpt>
      <trkpt lat="43.00291" lon="1.14005">
        <ele>472</ele>
        <time>2022-01-27T15:37:18+01:00</time>
      </trkpt>
      <trkpt lat="43.00274" lon="1.13984">
        <ele>471</ele>
        <time>2022-01-27T15:38:27+01:00</time>
      </trkpt>
      <trkpt lat="43.00285" lon="1.13957">
        <ele>480</ele>
        <time>2022-01-27T15:39:55+01:00</time>
      </trkpt>
      <trkpt lat="43.00304" lon="1.13939">
        <ele>486</ele>
        <time>2022-01-27T15:40:23+01:00</time>
      </trkpt>
      <trkpt lat="43.00312" lon="1.1391">
        <ele>494</ele>
        <time>2022-01-27T15:41:19+01:00</time>
      </trkpt>
      <trkpt lat="43.00321" lon="1.1388">
        <ele>493</ele>
        <time>2022-01-27T15:41:50+01:00</time>
      </trkpt>
      <trkpt lat="43.00342" lon="1.13868">
        <ele>495</ele>
        <time>2022-01-27T15:42:30+01:00</time>
      </trkpt>
      <trkpt lat="43.00362" lon="1.13855">
        <ele>494</ele>
        <time>2022-01-27T15:43:09+01:00</time>
      </trkpt>
      <trkpt lat="43.00381" lon="1.13836">
        <ele>499</ele>
        <time>2022-01-27T15:43:35+01:00</time>
      </trkpt>
      <trkpt lat="43.00403" lon="1.13826">
        <ele>503</ele>
        <time>2022-01-27T15:44:02+01:00</time>
      </trkpt>
      <trkpt lat="43.00419" lon="1.13804">
        <ele>506</ele>
        <time>2022-01-27T15:44:32+01:00</time>
      </trkpt>
      <trkpt lat="43.0043" lon="1.13777">
        <ele>504</ele>
        <time>2022-01-27T15:45:10+01:00</time>
      </trkpt>
      <trkpt lat="43.00443" lon="1.1375">
        <ele>504</ele>
        <time>2022-01-27T15:45:37+01:00</time>
      </trkpt>
      <trkpt lat="43.00431" lon="1.13723">
        <ele>505</ele>
        <time>2022-01-27T15:46:46+01:00</time>
      </trkpt>
      <trkpt lat="43.00416" lon="1.13699">
        <ele>507</ele>
        <time>2022-01-27T15:47:07+01:00</time>
      </trkpt>
      <trkpt lat="43.0044" lon="1.13705">
        <ele>498</ele>
        <time>2022-01-27T15:48:11+01:00</time>
      </trkpt>
      <trkpt lat="43.00458" lon="1.13724">
        <ele>497</ele>
        <time>2022-01-27T15:49:25+01:00</time>
      </trkpt>
      <trkpt lat="43.0048" lon="1.13734">
        <ele>496</ele>
        <time>2022-01-27T15:49:56+01:00</time>
      </trkpt>
      <trkpt lat="43.00497" lon="1.13754">
        <ele>492</ele>
        <time>2022-01-27T15:50:30+01:00</time>
      </trkpt>
      <trkpt lat="43.0052" lon="1.13764">
        <ele>489</ele>
        <time>2022-01-27T15:50:49+01:00</time>
      </trkpt>
      <trkpt lat="43.00542" lon="1.13768">
        <ele>484</ele>
        <time>2022-01-27T15:51:19+01:00</time>
      </trkpt>
      <trkpt lat="43.00566" lon="1.13772">
        <ele>481</ele>
        <time>2022-01-27T15:51:43+01:00</time>
      </trkpt>
      <trkpt lat="43.00588" lon="1.13767">
        <ele>476</ele>
        <time>2022-01-27T15:52:18+01:00</time>
      </trkpt>
      <trkpt lat="43.00609" lon="1.13781">
        <ele>467</ele>
        <time>2022-01-27T15:53:12+01:00</time>
      </trkpt>
      <trkpt lat="43.0062" lon="1.13809">
        <ele>464</ele>
        <time>2022-01-27T15:53:38+01:00</time>
      </trkpt>
      <trkpt lat="43.00642" lon="1.13822">
        <ele>467</ele>
        <time>2022-01-27T15:54:12+01:00</time>
      </trkpt>
      <trkpt lat="43.00664" lon="1.13831">
        <ele>469</ele>
        <time>2022-01-27T15:54:37+01:00</time>
      </trkpt>
      <trkpt lat="43.00687" lon="1.13835">
        <ele>469</ele>
        <time>2022-01-27T15:54:56+01:00</time>
      </trkpt>
      <trkpt lat="43.00711" lon="1.13836">
        <ele>469</ele>
        <time>2022-01-27T15:55:22+01:00</time>
      </trkpt>
      <trkpt lat="43.00734" lon="1.1384">
        <ele>468</ele>
        <time>2022-01-27T15:55:49+01:00</time>
      </trkpt>
      <trkpt lat="43.00756" lon="1.13849">
        <ele>465</ele>
        <time>2022-01-27T15:56:16+01:00</time>
      </trkpt>
      <trkpt lat="43.00773" lon="1.13869">
        <ele>462</ele>
        <time>2022-01-27T15:56:36+01:00</time>
      </trkpt>
      <trkpt lat="43.00795" lon="1.13859">
        <ele>471</ele>
        <time>2022-01-27T15:57:13+01:00</time>
      </trkpt>
      <trkpt lat="43.00813" lon="1.13837">
        <ele>467</ele>
        <time>2022-01-27T15:57:35+01:00</time>
      </trkpt>
      <trkpt lat="43.00826" lon="1.13811">
        <ele>461</ele>
        <time>2022-01-27T15:57:57+01:00</time>
      </trkpt>
      <trkpt lat="43.00837" lon="1.13784">
        <ele>455</ele>
        <time>2022-01-27T15:58:22+01:00</time>
      </trkpt>
      <trkpt lat="43.00852" lon="1.13759">
        <ele>454</ele>
        <time>2022-01-27T15:58:45+01:00</time>
      </trkpt>
      <trkpt lat="43.00862" lon="1.13732">
        <ele>453</ele>
        <time>2022-01-27T15:59:07+01:00</time>
      </trkpt>
      <trkpt lat="43.00874" lon="1.13704">
        <ele>448</ele>
        <time>2022-01-27T15:59:30+01:00</time>
      </trkpt>
      <trkpt lat="43.00882" lon="1.13675">
        <ele>445</ele>
        <time>2022-01-27T16:00:02+01:00</time>
      </trkpt>
      <trkpt lat="43.00889" lon="1.13645">
        <ele>444</ele>
        <time>2022-01-27T16:00:27+01:00</time>
      </trkpt>
      <trkpt lat="43.00902" lon="1.13618">
        <ele>438</ele>
        <time>2022-01-27T16:00:51+01:00</time>
      </trkpt>
      <trkpt lat="43.00922" lon="1.13601">
        <ele>438</ele>
        <time>2022-01-27T16:01:12+01:00</time>
      </trkpt>
      <trkpt lat="43.00938" lon="1.13579">
        <ele>438</ele>
        <time>2022-01-27T16:01:32+01:00</time>
      </trkpt>
      <trkpt lat="43.00957" lon="1.13562">
        <ele>439</ele>
        <time>2022-01-27T16:01:55+01:00</time>
      </trkpt>
      <trkpt lat="43.0098" lon="1.13553">
        <ele>441</ele>
        <time>2022-01-27T16:02:48+01:00</time>
      </trkpt>
      <trkpt lat="43.01001" lon="1.13541">
        <ele>445</ele>
        <time>2022-01-27T16:03:12+01:00</time>
      </trkpt>
      <trkpt lat="43.01023" lon="1.13532">
        <ele>443</ele>
        <time>2022-01-27T16:03:29+01:00</time>
      </trkpt>
      <trkpt lat="43.01046" lon="1.13528">
        <ele>439</ele>
        <time>2022-01-27T16:03:52+01:00</time>
      </trkpt>
      <trkpt lat="43.01066" lon="1.13512">
        <ele>440</ele>
        <time>2022-01-27T16:04:16+01:00</time>
      </trkpt>
      <trkpt lat="43.01085" lon="1.13495">
        <ele>441</ele>
        <time>2022-01-27T16:04:37+01:00</time>
      </trkpt>
      <trkpt lat="43.01105" lon="1.1348">
        <ele>441</ele>
        <time>2022-01-27T16:04:59+01:00</time>
      </trkpt>
      <trkpt lat="43.01124" lon="1.13461">
        <ele>438</ele>
        <time>2022-01-27T16:05:26+01:00</time>
      </trkpt>
      <trkpt lat="43.01141" lon="1.1344">
        <ele>440</ele>
        <time>2022-01-27T16:05:47+01:00</time>
      </trkpt>
      <trkpt lat="43.0116" lon="1.13422">
        <ele>443</ele>
        <time>2022-01-27T16:06:09+01:00</time>
      </trkpt>
      <trkpt lat="43.01179" lon="1.13405">
        <ele>444</ele>
        <time>2022-01-27T16:06:36+01:00</time>
      </trkpt>
      <trkpt lat="43.012" lon="1.1339">
        <ele>443</ele>
        <time>2022-01-27T16:06:57+01:00</time>
      </trkpt>
      <trkpt lat="43.01223" lon="1.13385">
        <ele>447</ele>
        <time>2022-01-27T16:07:22+01:00</time>
      </trkpt>
      <trkpt lat="43.01245" lon="1.13374">
        <ele>447</ele>
        <time>2022-01-27T16:07:42+01:00</time>
      </trkpt>
      <trkpt lat="43.01268" lon="1.13374">
        <ele>445</ele>
        <time>2022-01-27T16:08:10+01:00</time>
      </trkpt>
      <trkpt lat="43.0129" lon="1.13375">
        <ele>447</ele>
        <time>2022-01-27T16:08:30+01:00</time>
      </trkpt>
      <trkpt lat="43.01313" lon="1.13371">
        <ele>443</ele>
        <time>2022-01-27T16:08:54+01:00</time>
      </trkpt>
      <trkpt lat="43.01335" lon="1.13383">
        <ele>444</ele>
        <time>2022-01-27T16:09:20+01:00</time>
      </trkpt>
      <trkpt lat="43.01355" lon="1.13397">
        <ele>447</ele>
        <time>2022-01-27T16:09:49+01:00</time>
      </trkpt>
      <trkpt lat="43.01378" lon="1.13393">
        <ele>449</ele>
        <time>2022-01-27T16:10:25+01:00</time>
      </trkpt>
      <trkpt lat="43.014" lon="1.13392">
        <ele>445</ele>
        <time>2022-01-27T16:12:04+01:00</time>
      </trkpt>
      <trkpt lat="43.01421" lon="1.13379">
        <ele>442</ele>
        <time>2022-01-27T16:12:28+01:00</time>
      </trkpt>
      <trkpt lat="43.01443" lon="1.13373">
        <ele>439</ele>
        <time>2022-01-27T16:12:54+01:00</time>
      </trkpt>
      <trkpt lat="43.01467" lon="1.13373">
        <ele>440</ele>
        <time>2022-01-27T16:13:21+01:00</time>
      </trkpt>
      <trkpt lat="43.0149" lon="1.13374">
        <ele>443</ele>
        <time>2022-01-27T16:13:43+01:00</time>
      </trkpt>
      <trkpt lat="43.01512" lon="1.13378">
        <ele>446</ele>
        <time>2022-01-27T16:14:05+01:00</time>
      </trkpt>
      <trkpt lat="43.01535" lon="1.13382">
        <ele>443</ele>
        <time>2022-01-27T16:14:23+01:00</time>
      </trkpt>
      <trkpt lat="43.01557" lon="1.13395">
        <ele>445</ele>
        <time>2022-01-27T16:14:44+01:00</time>
      </trkpt>
      <trkpt lat="43.0158" lon="1.13402">
        <ele>442</ele>
        <time>2022-01-27T16:15:03+01:00</time>
      </trkpt>
      <trkpt lat="43.01602" lon="1.1341">
        <ele>437</ele>
        <time>2022-01-27T16:15:29+01:00</time>
      </trkpt>
      <trkpt lat="43.01624" lon="1.13418">
        <ele>442</ele>
        <time>2022-01-27T16:15:48+01:00</time>
      </trkpt>
      <trkpt lat="43.01647" lon="1.1342">
        <ele>448</ele>
        <time>2022-01-27T16:16:18+01:00</time>
      </trkpt>
      <trkpt lat="43.01668" lon="1.1341">
        <ele>452</ele>
        <time>2022-01-27T16:16:42+01:00</time>
      </trkpt>
      <trkpt lat="43.0169" lon="1.13399">
        <ele>451</ele>
        <time>2022-01-27T16:17:07+01:00</time>
      </trkpt>
      <trkpt lat="43.01709" lon="1.13382">
        <ele>448</ele>
        <time>2022-01-27T16:17:27+01:00</time>
      </trkpt>
      <trkpt lat="43.0173" lon="1.13369">
        <ele>447</ele>
        <time>2022-01-27T16:17:40+01:00</time>
      </trkpt>
      <trkpt lat="43.01751" lon="1.13357">
        <ele>449</ele>
        <time>2022-01-27T16:17:59+01:00</time>
      </trkpt>
      <trkpt lat="43.01771" lon="1.1334">
        <ele>448</ele>
        <time>2022-01-27T16:18:26+01:00</time>
      </trkpt>
      <trkpt lat="43.01789" lon="1.13321">
        <ele>449</ele>
        <time>2022-01-27T16:18:45+01:00</time>
      </trkpt>
      <trkpt lat="43.01769" lon="1.13307">
        <ele>449</ele>
        <time>2022-01-27T16:19:17+01:00</time>
      </trkpt>
      <trkpt lat="43.01792" lon="1.13306">
        <ele>449</ele>
        <time>2022-01-27T16:19:42+01:00</time>
      </trkpt>
      <trkpt lat="43.01794" lon="1.13275">
        <ele>448</ele>
        <time>2022-01-27T16:20:09+01:00</time>
      </trkpt>
      <trkpt lat="43.01806" lon="1.13249">
        <ele>446</ele>
        <time>2022-01-27T16:20:29+01:00</time>
      </trkpt>
      <trkpt lat="43.01828" lon="1.13238">
        <ele>445</ele>
        <time>2022-01-27T16:20:45+01:00</time>
      </trkpt>
      <trkpt lat="43.01845" lon="1.13217">
        <ele>448</ele>
        <time>2022-01-27T16:21:02+01:00</time>
      </trkpt>
      <trkpt lat="43.01865" lon="1.13201">
        <ele>445</ele>
        <time>2022-01-27T16:21:26+01:00</time>
      </trkpt>
      <trkpt lat="43.01885" lon="1.13183">
        <ele>450</ele>
        <time>2022-01-27T16:21:45+01:00</time>
      </trkpt>
      <trkpt lat="43.01903" lon="1.13163">
        <ele>450</ele>
        <time>2022-01-27T16:22:06+01:00</time>
      </trkpt>
      <trkpt lat="43.01923" lon="1.13148">
        <ele>444</ele>
        <time>2022-01-27T16:22:25+01:00</time>
      </trkpt>
      <trkpt lat="43.01939" lon="1.13125">
        <ele>442</ele>
        <time>2022-01-27T16:22:46+01:00</time>
      </trkpt>
      <trkpt lat="43.01958" lon="1.13107">
        <ele>444</ele>
        <time>2022-01-27T16:23:03+01:00</time>
      </trkpt>
      <trkpt lat="43.01973" lon="1.13083">
        <ele>442</ele>
        <time>2022-01-27T16:23:22+01:00</time>
      </trkpt>
      <trkpt lat="43.01992" lon="1.13065">
        <ele>443</ele>
        <time>2022-01-27T16:23:41+01:00</time>
      </trkpt>
      <trkpt lat="43.02012" lon="1.13047">
        <ele>442</ele>
        <time>2022-01-27T16:23:59+01:00</time>
      </trkpt>
      <trkpt lat="43.02028" lon="1.13025">
        <ele>438</ele>
        <time>2022-01-27T16:24:18+01:00</time>
      </trkpt>
      <trkpt lat="43.02045" lon="1.13003">
        <ele>436</ele>
        <time>2022-01-27T16:24:39+01:00</time>
      </trkpt>
      <trkpt lat="43.02062" lon="1.12983">
        <ele>439</ele>
        <time>2022-01-27T16:24:57+01:00</time>
      </trkpt>
      <trkpt lat="43.02077" lon="1.12958">
        <ele>438</ele>
        <time>2022-01-27T16:25:14+01:00</time>
      </trkpt>
      <trkpt lat="43.02094" lon="1.12938">
        <ele>435</ele>
        <time>2022-01-27T16:25:34+01:00</time>
      </trkpt>
      <trkpt lat="43.02113" lon="1.12918">
        <ele>436</ele>
        <time>2022-01-27T16:25:52+01:00</time>
      </trkpt>
      <trkpt lat="43.02128" lon="1.12894">
        <ele>435</ele>
        <time>2022-01-27T16:26:11+01:00</time>
      </trkpt>
      <trkpt lat="43.02146" lon="1.12874">
        <ele>432</ele>
        <time>2022-01-27T16:26:31+01:00</time>
      </trkpt>
      <trkpt lat="43.02162" lon="1.1285">
        <ele>436</ele>
        <time>2022-01-27T16:26:55+01:00</time>
      </trkpt>
      <trkpt lat="43.02174" lon="1.12823">
        <ele>434</ele>
        <time>2022-01-27T16:27:12+01:00</time>
      </trkpt>
      <trkpt lat="43.02183" lon="1.12794">
        <ele>432</ele>
        <time>2022-01-27T16:27:35+01:00</time>
      </trkpt>
      <trkpt lat="43.02193" lon="1.12766">
        <ele>429</ele>
        <time>2022-01-27T16:27:54+01:00</time>
      </trkpt>
      <trkpt lat="43.022" lon="1.12736">
        <ele>429</ele>
        <time>2022-01-27T16:28:12+01:00</time>
      </trkpt>
      <trkpt lat="43.02209" lon="1.12708">
        <ele>430</ele>
        <time>2022-01-27T16:28:34+01:00</time>
      </trkpt>
      <trkpt lat="43.02219" lon="1.12679">
        <ele>430</ele>
        <time>2022-01-27T16:28:52+01:00</time>
      </trkpt>
      <trkpt lat="43.02236" lon="1.12659">
        <ele>432</ele>
        <time>2022-01-27T16:29:14+01:00</time>
      </trkpt>
      <trkpt lat="43.02257" lon="1.12646">
        <ele>431</ele>
        <time>2022-01-27T16:29:33+01:00</time>
      </trkpt>
      <trkpt lat="43.02278" lon="1.12634">
        <ele>434</ele>
        <time>2022-01-27T16:29:52+01:00</time>
      </trkpt>
      <trkpt lat="43.02301" lon="1.1263">
        <ele>432</ele>
        <time>2022-01-27T16:30:12+01:00</time>
      </trkpt>
      <trkpt lat="43.02324" lon="1.12625">
        <ele>430</ele>
        <time>2022-01-27T16:30:33+01:00</time>
      </trkpt>
      <trkpt lat="43.02347" lon="1.12623">
        <ele>429</ele>
        <time>2022-01-27T16:30:50+01:00</time>
      </trkpt>
      <trkpt lat="43.0237" lon="1.12623">
        <ele>435</ele>
        <time>2022-01-27T16:31:12+01:00</time>
      </trkpt>
      <trkpt lat="43.02393" lon="1.12623">
        <ele>432</ele>
        <time>2022-01-27T16:31:33+01:00</time>
      </trkpt>
      <trkpt lat="43.02416" lon="1.12622">
        <ele>431</ele>
        <time>2022-01-27T16:31:54+01:00</time>
      </trkpt>
      <trkpt lat="43.02419" lon="1.12592">
        <ele>433</ele>
        <time>2022-01-27T16:32:23+01:00</time>
      </trkpt>
      <trkpt lat="43.02404" lon="1.12567">
        <ele>436</ele>
        <time>2022-01-27T16:32:50+01:00</time>
      </trkpt>
      <trkpt lat="43.0239" lon="1.12542">
        <ele>438</ele>
        <time>2022-01-27T16:33:09+01:00</time>
      </trkpt>
      <trkpt lat="43.02376" lon="1.12516">
        <ele>435</ele>
        <time>2022-01-27T16:33:31+01:00</time>
      </trkpt>
      <trkpt lat="43.02358" lon="1.12497">
        <ele>430</ele>
        <time>2022-01-27T16:33:56+01:00</time>
      </trkpt>
      <trkpt lat="43.02336" lon="1.12486">
        <ele>424</ele>
        <time>2022-01-27T16:34:15+01:00</time>
      </trkpt>
      <trkpt lat="43.02315" lon="1.12474">
        <ele>423</ele>
        <time>2022-01-27T16:34:36+01:00</time>
      </trkpt>
      <trkpt lat="43.02294" lon="1.12463">
        <ele>422</ele>
        <time>2022-01-27T16:35:22+01:00</time>
      </trkpt>
      <trkpt lat="43.02273" lon="1.12449">
        <ele>426</ele>
        <time>2022-01-27T16:42:45+01:00</time>
      </trkpt>
      <trkpt lat="43.02252" lon="1.12434">
        <ele>425</ele>
        <time>2022-01-27T16:43:03+01:00</time>
      </trkpt>
      <trkpt lat="43.02233" lon="1.12418">
        <ele>426</ele>
        <time>2022-01-27T16:43:20+01:00</time>
      </trkpt>
      <trkpt lat="43.02213" lon="1.12402">
        <ele>428</ele>
        <time>2022-01-27T16:43:39+01:00</time>
      </trkpt>
      <trkpt lat="43.02208" lon="1.12371">
        <ele>430</ele>
        <time>2022-01-27T16:44:02+01:00</time>
      </trkpt>
      <trkpt lat="43.02206" lon="1.1234">
        <ele>436</ele>
        <time>2022-01-27T16:44:19+01:00</time>
      </trkpt>
      <trkpt lat="43.02214" lon="1.1231">
        <ele>435</ele>
        <time>2022-01-27T16:44:38+01:00</time>
      </trkpt>
      <trkpt lat="43.02226" lon="1.12282">
        <ele>433</ele>
        <time>2022-01-27T16:44:58+01:00</time>
      </trkpt>
      <trkpt lat="43.02237" lon="1.12254">
        <ele>429</ele>
        <time>2022-01-27T16:45:18+01:00</time>
      </trkpt>
      <trkpt lat="43.02248" lon="1.12227">
        <ele>428</ele>
        <time>2022-01-27T16:45:37+01:00</time>
      </trkpt>
      <trkpt lat="43.0226" lon="1.12199">
        <ele>429</ele>
        <time>2022-01-27T16:45:55+01:00</time>
      </trkpt>
      <trkpt lat="43.02274" lon="1.12175">
        <ele>430</ele>
        <time>2022-01-27T16:46:13+01:00</time>
      </trkpt>
      <trkpt lat="43.02287" lon="1.12148">
        <ele>432</ele>
        <time>2022-01-27T16:46:32+01:00</time>
      </trkpt>
      <trkpt lat="43.02297" lon="1.12119">
        <ele>434</ele>
        <time>2022-01-27T16:46:51+01:00</time>
      </trkpt>
      <trkpt lat="43.02309" lon="1.12092">
        <ele>429</ele>
        <time>2022-01-27T16:47:10+01:00</time>
      </trkpt>
      <trkpt lat="43.02322" lon="1.12066">
        <ele>427</ele>
        <time>2022-01-27T16:47:28+01:00</time>
      </trkpt>
      <trkpt lat="43.02333" lon="1.12038">
        <ele>426</ele>
        <time>2022-01-27T16:47:46+01:00</time>
      </trkpt>
      <trkpt lat="43.02342" lon="1.12009">
        <ele>427</ele>
        <time>2022-01-27T16:48:06+01:00</time>
      </trkpt>
      <trkpt lat="43.02349" lon="1.11979">
        <ele>426</ele>
        <time>2022-01-27T16:48:24+01:00</time>
      </trkpt>
      <trkpt lat="43.02357" lon="1.11948">
        <ele>425</ele>
        <time>2022-01-27T16:48:42+01:00</time>
      </trkpt>
      <trkpt lat="43.02365" lon="1.11919">
        <ele>425</ele>
        <time>2022-01-27T16:49:01+01:00</time>
      </trkpt>
      <trkpt lat="43.02374" lon="1.11889">
        <ele>427</ele>
        <time>2022-01-27T16:49:20+01:00</time>
      </trkpt>
      <trkpt lat="43.02381" lon="1.11859">
        <ele>424</ele>
        <time>2022-01-27T16:49:39+01:00</time>
      </trkpt>
      <trkpt lat="43.02394" lon="1.11834">
        <ele>426</ele>
        <time>2022-01-27T16:49:56+01:00</time>
      </trkpt>
      <trkpt lat="43.02409" lon="1.11808">
        <ele>430</ele>
        <time>2022-01-27T16:50:16+01:00</time>
      </trkpt>
      <trkpt lat="43.02424" lon="1.11786">
        <ele>431</ele>
        <time>2022-01-27T16:50:35+01:00</time>
      </trkpt>
      <trkpt lat="43.02444" lon="1.11768">
        <ele>428</ele>
        <time>2022-01-27T16:50:53+01:00</time>
      </trkpt>
      <trkpt lat="43.02463" lon="1.11752">
        <ele>426</ele>
        <time>2022-01-27T16:51:13+01:00</time>
      </trkpt>
      <trkpt lat="43.02482" lon="1.11734">
        <ele>424</ele>
        <time>2022-01-27T16:51:33+01:00</time>
      </trkpt>
      <trkpt lat="43.02468" lon="1.11709">
        <ele>423</ele>
        <time>2022-01-27T16:51:58+01:00</time>
      </trkpt>
      <trkpt lat="43.02451" lon="1.11689">
        <ele>423</ele>
        <time>2022-01-27T16:52:20+01:00</time>
      </trkpt>
      <trkpt lat="43.02446" lon="1.11658">
        <ele>427</ele>
        <time>2022-01-27T16:52:41+01:00</time>
      </trkpt>
      <trkpt lat="43.02443" lon="1.11627">
        <ele>428</ele>
        <time>2022-01-27T16:52:59+01:00</time>
      </trkpt>
      <trkpt lat="43.02423" lon="1.11611">
        <ele>424</ele>
        <time>2022-01-27T16:53:17+01:00</time>
      </trkpt>
      <trkpt lat="43.024" lon="1.11601">
        <ele>425</ele>
        <time>2022-01-27T16:53:34+01:00</time>
      </trkpt>
      <trkpt lat="43.02381" lon="1.11584">
        <ele>425</ele>
        <time>2022-01-27T16:53:53+01:00</time>
      </trkpt>
      <trkpt lat="43.0239" lon="1.11556">
        <ele>422</ele>
        <time>2022-01-27T16:54:14+01:00</time>
      </trkpt>
      <trkpt lat="43.0241" lon="1.1154">
        <ele>424</ele>
        <time>2022-01-27T16:54:36+01:00</time>
      </trkpt>
      <trkpt lat="43.02432" lon="1.1153">
        <ele>429</ele>
        <time>2022-01-27T16:54:56+01:00</time>
      </trkpt>
      <trkpt lat="43.02453" lon="1.11517">
        <ele>433</ele>
        <time>2022-01-27T16:55:15+01:00</time>
      </trkpt>
      <trkpt lat="43.02475" lon="1.11506">
        <ele>434</ele>
        <time>2022-01-27T16:55:31+01:00</time>
      </trkpt>
      <trkpt lat="43.02492" lon="1.11485">
        <ele>435</ele>
        <time>2022-01-27T16:55:48+01:00</time>
      </trkpt>
      <trkpt lat="43.02506" lon="1.11459">
        <ele>430</ele>
        <time>2022-01-27T16:56:12+01:00</time>
      </trkpt>
      <trkpt lat="43.02525" lon="1.11442">
        <ele>429</ele>
        <time>2022-01-27T16:56:30+01:00</time>
      </trkpt>
      <trkpt lat="43.02547" lon="1.11429">
        <ele>425</ele>
        <time>2022-01-27T16:56:50+01:00</time>
      </trkpt>
      <trkpt lat="43.02566" lon="1.1141">
        <ele>426</ele>
        <time>2022-01-27T16:57:11+01:00</time>
      </trkpt>
      <trkpt lat="43.02587" lon="1.11395">
        <ele>427</ele>
        <time>2022-01-27T16:57:32+01:00</time>
      </trkpt>
      <trkpt lat="43.02609" lon="1.11389">
        <ele>423</ele>
        <time>2022-01-27T16:57:52+01:00</time>
      </trkpt>
      <trkpt lat="43.0263" lon="1.11375">
        <ele>420</ele>
        <time>2022-01-27T16:58:14+01:00</time>
      </trkpt>
      <trkpt lat="43.02652" lon="1.11363">
        <ele>421</ele>
        <time>2022-01-27T16:58:34+01:00</time>
      </trkpt>
      <trkpt lat="43.02673" lon="1.11353">
        <ele>420</ele>
        <time>2022-01-27T16:58:58+01:00</time>
      </trkpt>
    </trkseg>
  </trk>
</gpx>